createdAt,value
2018-12-13T00:02:08.967Z,3.15
2018-12-13T00:04:36.395Z,3.17
2018-12-13T00:07:03.809Z,3.17
2018-12-13T00:09:31.206Z,3.09
2018-12-13T00:11:58.624Z,3.05
2018-12-13T00:14:26.654Z,2.98
2018-12-13T00:16:54.094Z,2.93
2018-12-13T00:19:21.568Z,2.82
2018-12-13T00:21:48.999Z,2.72
2018-12-13T00:24:16.459Z,2.70
2018-12-13T00:26:43.989Z,2.71
2018-12-13T00:29:11.390Z,2.74
2018-12-13T00:31:38.820Z,2.78
2018-12-13T00:34:06.278Z,2.83
2018-12-13T00:36:39.508Z,2.83
2018-12-13T00:39:01.170Z,2.78
2018-12-13T00:41:28.566Z,2.69
2018-12-13T00:43:56.030Z,2.62
2018-12-13T00:46:23.444Z,2.57
2018-12-13T00:48:51.121Z,2.59
2018-12-13T00:51:18.517Z,2.61
2018-12-13T00:53:45.936Z,2.58
2018-12-13T00:56:13.372Z,2.55
2018-12-13T00:58:40.771Z,2.61
2018-12-13T01:01:08.235Z,2.60
2018-12-13T01:03:35.725Z,2.58
2018-12-13T01:06:03.152Z,2.59
2018-12-13T01:08:30.607Z,2.60
2018-12-13T01:10:58.147Z,2.63
2018-12-13T01:13:25.611Z,2.63
2018-12-13T01:15:53.026Z,2.69
2018-12-13T01:18:20.418Z,2.70
2018-12-13T01:20:47.828Z,2.74
2018-12-13T01:23:15.324Z,2.72
2018-12-13T01:25:42.731Z,2.74
2018-12-13T01:28:10.263Z,2.72
2018-12-13T01:30:37.675Z,2.76
2018-12-13T01:33:05.080Z,2.79
2018-12-13T01:35:32.490Z,2.81
2018-12-13T01:38:00.137Z,2.76
2018-12-13T01:40:28.100Z,2.69
2018-12-13T01:42:55.507Z,2.63
2018-12-13T01:45:22.904Z,2.64
2018-12-13T01:47:50.586Z,2.52
2018-12-13T01:50:17.995Z,2.44
2018-12-13T01:52:45.407Z,2.46
2018-12-13T01:55:13.135Z,2.44
2018-12-13T01:57:40.547Z,2.41
2018-12-13T02:00:07.941Z,2.48
2018-12-13T02:02:35.364Z,2.44
2018-12-13T02:05:02.848Z,2.46
2018-12-13T02:07:30.252Z,2.54
2018-12-13T02:09:57.646Z,2.61
2018-12-13T02:12:25.060Z,2.67
2018-12-13T02:14:53.079Z,2.69
2018-12-13T02:17:21.054Z,2.69
2018-12-13T02:19:48.467Z,2.67
2018-12-13T02:22:15.936Z,2.69
2018-12-13T02:24:43.498Z,2.68
2018-12-13T02:27:10.923Z,2.65
2018-12-13T02:29:38.412Z,2.63
2018-12-13T02:32:05.814Z,2.56
2018-12-13T02:34:33.493Z,2.52
2018-12-13T02:37:06.080Z,2.51
2018-12-13T02:39:28.500Z,2.47
2018-12-13T02:41:55.922Z,2.47
2018-12-13T02:44:23.314Z,2.48
2018-12-13T02:46:50.741Z,2.36
2018-12-13T02:49:18.666Z,2.36
2018-12-13T02:51:46.064Z,2.38
2018-12-13T02:54:13.461Z,2.39
2018-12-13T02:56:40.902Z,2.39
2018-12-13T02:59:08.315Z,2.39
2018-12-13T03:01:35.702Z,2.43
2018-12-13T03:04:03.128Z,2.38
2018-12-13T03:06:30.751Z,2.44
2018-12-13T03:08:58.161Z,2.51
2018-12-13T03:11:25.574Z,2.58
2018-12-13T03:13:53.023Z,2.64
2018-12-13T03:16:20.548Z,2.66
2018-12-13T03:18:47.973Z,2.64
2018-12-13T03:21:15.431Z,2.65
2018-12-13T03:23:42.984Z,2.59
2018-12-13T03:26:10.559Z,2.63
2018-12-13T03:28:37.998Z,2.66
2018-12-13T03:31:05.404Z,2.72
2018-12-13T03:33:32.867Z,2.75
2018-12-13T03:36:00.294Z,2.80
2018-12-13T03:38:27.719Z,2.81
2018-12-13T03:40:55.135Z,2.77
2018-12-13T03:43:22.633Z,2.72
2018-12-13T03:45:50.028Z,2.75
2018-12-13T03:48:17.446Z,2.65
2018-12-13T03:50:45.160Z,2.62
2018-12-13T03:53:12.674Z,2.60
2018-12-13T03:55:40.084Z,2.56
2018-12-13T03:58:08.065Z,2.48
2018-12-13T04:00:35.503Z,2.46
2018-12-13T04:03:02.929Z,2.40
2018-12-13T04:05:30.386Z,2.34
2018-12-13T04:07:58.571Z,2.23
2018-12-13T04:10:25.966Z,2.10
2018-12-13T04:12:53.398Z,2.10
2018-12-13T04:15:20.803Z,2.10
2018-12-13T04:17:48.216Z,2.16
2018-12-13T04:20:15.616Z,2.25
2018-12-13T04:22:43.059Z,2.39
2018-12-13T04:25:10.494Z,2.43
2018-12-13T04:27:37.907Z,2.40
2018-12-13T04:30:05.313Z,2.40
2018-12-13T04:32:33.583Z,2.39
2018-12-13T04:35:00.991Z,2.35
2018-12-13T04:37:35.076Z,2.32
2018-12-13T04:39:55.833Z,2.32
2018-12-13T04:42:23.268Z,2.35
2018-12-13T04:44:50.711Z,2.28
2018-12-13T04:47:18.124Z,2.29
2018-12-13T04:49:45.533Z,2.42
2018-12-13T04:52:12.946Z,2.34
2018-12-13T04:54:40.356Z,2.25
2018-12-13T04:57:07.777Z,2.20
2018-12-13T04:59:35.231Z,2.19
2018-12-13T05:02:02.647Z,2.20
2018-12-13T05:04:30.044Z,2.25
2018-12-13T05:06:57.914Z,2.26
2018-12-13T05:09:26.101Z,2.16
2018-12-13T05:11:53.563Z,2.02
2018-12-13T05:14:21.084Z,2.04
2018-12-13T05:16:48.500Z,2.09
2018-12-13T05:19:15.931Z,2.11
2018-12-13T05:21:43.358Z,2.13
2018-12-13T05:24:10.793Z,2.13
2018-12-13T05:26:38.272Z,2.06
2018-12-13T05:29:05.645Z,2.02
2018-12-13T05:31:33.238Z,2.03
2018-12-13T05:34:00.649Z,2.16
2018-12-13T05:36:28.485Z,2.14
2018-12-13T05:38:55.907Z,2.13
2018-12-13T05:41:23.320Z,2.15
2018-12-13T05:43:50.756Z,2.19
2018-12-13T05:46:18.178Z,2.28
2018-12-13T05:48:45.610Z,2.20
2018-12-13T05:51:13.043Z,2.21
2018-12-13T05:53:40.426Z,2.17
2018-12-13T05:56:08.678Z,2.13
2018-12-13T05:58:36.120Z,2.06
2018-12-13T06:01:03.573Z,2.15
2018-12-13T06:03:30.983Z,2.18
2018-12-13T06:05:58.443Z,2.23
2018-12-13T06:08:25.871Z,2.20
2018-12-13T06:10:53.295Z,2.18
2018-12-13T06:13:20.781Z,2.09
2018-12-13T06:15:48.213Z,2.11
2018-12-13T06:18:15.634Z,2.16
2018-12-13T06:20:43.075Z,2.16
2018-12-13T06:23:10.502Z,2.16
2018-12-13T06:25:37.887Z,2.10
2018-12-13T06:28:05.337Z,2.11
2018-12-13T06:30:32.820Z,2.14
2018-12-13T06:33:00.308Z,2.21
2018-12-13T06:35:27.751Z,2.20
2018-12-13T06:38:01.068Z,2.21
2018-12-13T06:40:22.564Z,2.18
2018-12-13T06:42:50.023Z,2.13
2018-12-13T06:45:17.479Z,2.13
2018-12-13T06:47:44.890Z,2.03
2018-12-13T06:50:12.700Z,2.07
2018-12-13T06:52:40.106Z,2.14
2018-12-13T06:55:07.519Z,2.17
2018-12-13T06:57:34.949Z,2.26
2018-12-13T07:00:02.379Z,2.22
2018-12-13T07:02:29.890Z,2.18
2018-12-13T07:04:57.276Z,2.18
2018-12-13T07:07:24.711Z,2.13
2018-12-13T07:09:52.190Z,2.18
2018-12-13T07:12:19.598Z,2.25
2018-12-13T07:14:47.024Z,2.15
2018-12-13T07:17:14.462Z,2.10
2018-12-13T07:19:41.881Z,2.19
2018-12-13T07:22:10.093Z,2.32
2018-12-13T07:24:37.623Z,2.31
2018-12-13T07:27:05.061Z,2.28
2018-12-13T07:29:32.464Z,2.38
2018-12-13T07:31:59.884Z,2.56
2018-12-13T07:34:27.354Z,2.61
2018-12-13T07:36:54.766Z,2.48
2018-12-13T07:39:22.766Z,2.37
2018-12-13T07:41:50.215Z,2.44
2018-12-13T07:44:17.629Z,2.37
2018-12-13T07:46:45.169Z,2.35
2018-12-13T07:49:13.503Z,2.40
2018-12-13T07:51:41.057Z,2.43
2018-12-13T07:54:08.463Z,2.37
2018-12-13T07:56:35.916Z,2.35
2018-12-13T07:59:03.317Z,2.38
2018-12-13T08:01:30.775Z,2.34
2018-12-13T08:03:58.195Z,2.26
2018-12-13T08:06:26.509Z,2.37
2018-12-13T08:08:54.808Z,2.39
2018-12-13T08:11:22.235Z,2.47
2018-12-13T08:13:50.207Z,2.41
2018-12-13T08:16:17.645Z,2.30
2018-12-13T08:18:45.098Z,2.21
2018-12-13T08:21:12.626Z,2.36
2018-12-13T08:23:40.061Z,2.37
2018-12-13T08:26:07.553Z,2.43
2018-12-13T08:28:35.052Z,2.49
2018-12-13T08:31:02.535Z,2.69
2018-12-13T08:33:29.937Z,2.67
2018-12-13T08:35:57.346Z,2.69
2018-12-13T08:38:27.421Z,2.75
2018-12-13T08:40:53.208Z,2.82
2018-12-13T08:43:21.331Z,2.74
2018-12-13T08:45:48.857Z,2.78
2018-12-13T08:48:16.387Z,2.74
2018-12-13T08:50:43.842Z,2.73
2018-12-13T08:53:11.268Z,2.64
2018-12-13T08:55:38.690Z,2.88
2018-12-13T08:58:06.090Z,3.02
2018-12-13T09:00:33.498Z,3.11
2018-12-13T09:03:01.819Z,3.21
2018-12-13T09:05:29.245Z,3.18
2018-12-13T09:07:56.655Z,3.27
2018-12-13T09:10:24.074Z,3.42
2018-12-13T09:12:51.487Z,3.67
2018-12-13T09:15:19.816Z,3.94
2018-12-13T09:17:46.322Z,4.23
2018-12-13T09:20:13.749Z,4.37
2018-12-13T09:22:41.210Z,4.47
2018-12-13T09:25:08.569Z,4.70
2018-12-13T09:27:36.049Z,4.86
2018-12-13T09:30:03.870Z,5.69
2018-12-13T09:32:31.279Z,5.86
2018-12-13T09:34:58.692Z,5.72
2018-12-13T09:37:26.121Z,5.93
2018-12-13T09:39:53.536Z,7.26
2018-12-13T09:42:21.317Z,8.14
2018-12-13T09:44:48.299Z,8.26
2018-12-13T09:47:15.245Z,9.08
2018-12-13T09:49:42.240Z,9.02
2018-12-13T09:52:10.070Z,8.74
2018-12-13T09:54:37.067Z,9.10
2018-12-13T09:57:04.116Z,8.52
2018-12-13T09:59:31.129Z,8.30
2018-12-13T10:01:58.532Z,7.47
2018-12-13T10:04:26.019Z,8.18
2018-12-13T10:06:53.124Z,9.06
2018-12-13T10:09:20.142Z,9.67
2018-12-13T10:11:47.101Z,9.16
2018-12-13T10:14:14.547Z,7.84
2018-12-13T10:16:41.511Z,6.69
2018-12-13T10:19:08.975Z,5.92
2018-12-13T10:21:35.919Z,6.27
2018-12-13T10:24:02.870Z,5.90
2018-12-13T10:26:29.813Z,6.16
2018-12-13T10:28:57.258Z,6.44
2018-12-13T10:31:24.683Z,7.80
2018-12-13T10:33:52.204Z,8.26
2018-12-13T10:36:19.254Z,9.19
2018-12-13T10:38:52.797Z,8.29
2018-12-13T10:41:14.048Z,7.77
2018-12-13T10:43:41.518Z,8.28
2018-12-13T10:46:08.466Z,8.78
2018-12-13T10:48:35.411Z,8.00
2018-12-13T10:51:02.827Z,7.27
2018-12-13T10:53:30.278Z,7.14
2018-12-13T10:55:57.215Z,8.09
2018-12-13T10:58:24.175Z,9.16
2018-12-13T11:03:47.757Z,9.58
2018-12-13T11:06:15.228Z,8.40
2018-12-13T11:08:42.661Z,7.92
2018-12-13T11:11:09.595Z,9.31
2018-12-13T11:13:36.712Z,9.98
2018-12-13T11:16:04.212Z,10.16
2018-12-13T11:18:31.370Z,10.76
2018-12-13T11:21:01.089Z,12.03
2018-12-13T11:23:28.531Z,12.96
2018-12-13T11:25:56.013Z,13.77
2018-12-13T11:31:23.656Z,14.28
2018-12-13T11:33:51.085Z,14.49
2018-12-13T11:36:19.692Z,12.54
2018-12-13T11:38:47.163Z,12.02
2018-12-13T11:41:14.640Z,11.36
2018-12-13T11:43:42.059Z,11.18
2018-12-13T11:46:09.607Z,10.24
2018-12-13T11:48:37.022Z,10.30
2018-12-13T11:51:04.412Z,9.49
2018-12-13T11:53:31.890Z,9.48
2018-12-13T11:55:59.294Z,8.78
2018-12-13T11:58:26.746Z,8.76
2018-12-13T12:00:54.314Z,8.05
2018-12-13T12:03:21.739Z,7.75
2018-12-13T12:05:49.221Z,8.62
2018-12-13T12:08:16.647Z,8.49
2018-12-13T12:10:44.911Z,8.19
2018-12-13T12:13:12.499Z,7.73
2018-12-13T12:15:39.948Z,7.70
2018-12-13T12:18:08.315Z,9.22
2018-12-13T12:20:35.711Z,11.34
2018-12-13T12:23:04.955Z,13.41
2018-12-13T12:25:32.387Z,14.75
2018-12-13T12:28:00.370Z,15.25
2018-12-13T12:30:27.802Z,15.20
2018-12-13T12:32:55.340Z,15.41
2018-12-13T12:35:23.156Z,15.05
2018-12-13T12:37:50.622Z,15.01
2018-12-13T12:40:18.136Z,14.93
2018-12-13T12:42:47.385Z,14.67
2018-12-13T12:45:14.854Z,13.85
2018-12-13T12:47:42.332Z,12.97
2018-12-13T12:50:09.722Z,11.00
2018-12-13T12:52:37.125Z,8.95
2018-12-13T12:55:05.275Z,7.55
2018-12-13T12:57:33.036Z,6.62
2018-12-13T13:00:00.478Z,6.62
2018-12-13T13:02:27.889Z,6.53
2018-12-13T13:04:55.332Z,6.60
2018-12-13T13:07:22.777Z,6.64
2018-12-13T13:09:50.240Z,6.44
2018-12-13T13:12:17.644Z,6.32
2018-12-13T13:14:45.766Z,6.11
2018-12-13T13:17:13.920Z,6.05
2018-12-13T13:19:41.366Z,6.06
2018-12-13T13:22:09.375Z,5.99
2018-12-13T13:24:37.462Z,5.72
2018-12-13T13:27:05.728Z,5.58
2018-12-13T13:29:33.333Z,5.49
2018-12-13T13:32:00.763Z,5.42
2018-12-13T13:34:28.238Z,5.40
2018-12-13T13:36:55.752Z,5.12
2018-12-13T13:39:23.732Z,5.00
2018-12-13T13:41:51.132Z,5.12
2018-12-13T13:44:19.332Z,5.13
2018-12-13T13:46:48.202Z,5.16
2018-12-13T13:49:15.649Z,5.18
2018-12-13T13:51:43.141Z,5.17
2018-12-13T13:54:10.655Z,5.10
2018-12-13T13:56:38.066Z,4.96
2018-12-13T13:59:05.612Z,5.10
2018-12-13T14:01:33.019Z,5.03
2018-12-13T14:04:00.475Z,4.86
2018-12-13T14:06:27.920Z,4.90
2018-12-13T14:08:55.331Z,4.82
2018-12-13T14:11:22.852Z,4.83
2018-12-13T14:13:50.227Z,4.83
2018-12-13T14:16:17.644Z,4.72
2018-12-13T14:18:45.040Z,4.81
2018-12-13T14:21:12.616Z,4.86
2018-12-13T14:23:40.033Z,4.88
2018-12-13T14:26:07.475Z,4.91
2018-12-13T14:28:34.921Z,4.84
2018-12-13T14:31:02.490Z,4.85
2018-12-13T14:33:29.912Z,4.89
2018-12-13T14:35:57.459Z,4.80
2018-12-13T14:38:24.956Z,4.85
2018-12-13T14:40:52.513Z,4.94
2018-12-13T14:43:19.996Z,5.01
2018-12-13T14:45:48.023Z,5.02
2018-12-13T14:48:15.440Z,5.06
2018-12-13T14:50:43.861Z,5.10
2018-12-13T14:53:11.288Z,4.95
2018-12-13T14:55:38.750Z,4.80
2018-12-13T14:58:06.150Z,4.68
2018-12-13T15:00:33.661Z,4.59
2018-12-13T15:03:01.156Z,4.44
2018-12-13T15:05:28.554Z,4.33
2018-12-13T15:07:56.874Z,4.33
2018-12-13T15:10:24.477Z,4.41
2018-12-13T15:12:51.939Z,4.32
2018-12-13T15:15:19.443Z,4.34
2018-12-13T15:17:46.851Z,4.45
2018-12-13T15:20:14.303Z,4.48
2018-12-13T15:22:41.724Z,4.37
2018-12-13T15:25:09.656Z,4.31
2018-12-13T15:27:37.081Z,4.29
2018-12-13T15:30:04.512Z,4.31
2018-12-13T15:32:32.819Z,4.30
2018-12-13T15:35:00.214Z,4.38
2018-12-13T15:37:27.626Z,4.26
2018-12-13T15:39:57.329Z,4.15
2018-12-13T15:42:22.835Z,4.18
2018-12-13T15:44:50.250Z,4.24
2018-12-13T15:47:17.668Z,4.24
2018-12-13T15:49:45.247Z,4.22
2018-12-13T15:52:12.689Z,4.26
2018-12-13T15:54:40.115Z,4.22
2018-12-13T15:57:07.541Z,4.26
2018-12-13T15:59:35.015Z,4.36
2018-12-13T16:02:02.428Z,4.33
2018-12-13T16:04:30.561Z,4.27
2018-12-13T16:06:58.407Z,4.28
2018-12-13T16:09:25.873Z,4.24
2018-12-13T16:11:53.253Z,4.26
2018-12-13T16:14:21.551Z,4.29
2018-12-13T16:16:49.046Z,4.35
2018-12-13T16:19:16.754Z,4.28
2018-12-13T16:21:44.158Z,4.33
2018-12-13T16:24:11.566Z,4.34
2018-12-13T16:26:39.127Z,4.39
2018-12-13T16:29:06.601Z,4.43
2018-12-13T16:31:34.231Z,4.50
2018-12-13T16:34:01.642Z,4.58
2018-12-13T16:36:29.144Z,4.59
2018-12-13T16:38:56.630Z,4.57
2018-12-13T16:41:24.079Z,4.59
2018-12-13T16:43:51.675Z,4.41
2018-12-13T16:46:19.100Z,4.35
2018-12-13T16:48:46.692Z,4.41
2018-12-13T16:51:14.141Z,4.34
2018-12-13T16:53:41.565Z,4.33
2018-12-13T16:56:09.088Z,4.34
2018-12-13T16:58:36.500Z,4.35
2018-12-13T17:01:04.010Z,4.20
2018-12-13T17:03:37.158Z,4.10
2018-12-13T17:06:04.553Z,4.15
2018-12-13T17:08:31.984Z,4.17
2018-12-13T17:10:59.401Z,4.08
2018-12-13T17:13:26.927Z,3.95
2018-12-13T17:15:54.583Z,3.99
2018-12-13T17:18:22.274Z,4.11
2018-12-13T17:20:49.696Z,4.20
2018-12-13T17:23:17.148Z,4.24
2018-12-13T17:25:44.551Z,4.29
2018-12-13T17:28:12.253Z,4.27
2018-12-13T17:30:39.925Z,4.22
2018-12-13T17:33:07.428Z,4.20
2018-12-13T17:35:34.831Z,4.22
2018-12-13T17:38:02.436Z,4.34
2018-12-13T17:40:29.843Z,4.44
2018-12-13T17:42:57.799Z,4.50
2018-12-13T17:45:25.245Z,4.47
2018-12-13T17:47:52.737Z,4.48
2018-12-13T17:50:20.470Z,4.50
2018-12-13T17:52:47.882Z,4.39
2018-12-13T17:55:15.384Z,4.28
2018-12-13T17:57:42.819Z,4.26
2018-12-13T18:00:10.298Z,4.37
2018-12-13T18:02:37.803Z,4.39
2018-12-13T18:05:06.024Z,4.40
2018-12-13T18:07:33.447Z,4.46
2018-12-13T18:10:00.871Z,4.51
2018-12-13T18:12:29.057Z,4.51
2018-12-13T18:14:56.496Z,4.28
2018-12-13T18:17:24.167Z,4.15
2018-12-13T18:19:52.119Z,4.10
2018-12-13T18:22:19.628Z,3.85
2018-12-13T18:24:47.147Z,3.55
2018-12-13T18:27:15.507Z,3.57
2018-12-13T18:29:42.906Z,3.63
2018-12-13T18:32:10.378Z,3.65
2018-12-13T18:34:38.201Z,3.70
2018-12-13T18:37:05.765Z,3.65
2018-12-13T18:39:33.186Z,3.55
2018-12-13T18:42:00.697Z,3.52
2018-12-13T18:44:28.169Z,3.57
2018-12-13T18:46:55.589Z,3.62
2018-12-13T18:49:23.107Z,3.57
2018-12-13T18:51:50.562Z,3.52
2018-12-13T18:54:17.995Z,3.62
2018-12-13T18:56:45.476Z,3.66
2018-12-13T18:59:12.932Z,3.67
2018-12-13T19:01:40.495Z,3.68
2018-12-13T19:04:07.899Z,3.69
2018-12-13T19:06:35.584Z,3.68
2018-12-13T19:09:03.206Z,3.62
2018-12-13T19:11:30.650Z,3.69
2018-12-13T19:13:58.193Z,3.78
2018-12-13T19:16:25.651Z,3.79
2018-12-13T19:18:53.063Z,3.75
2018-12-13T19:21:21.038Z,3.68
2018-12-13T19:23:48.452Z,3.73
2018-12-13T19:26:15.848Z,3.76
2018-12-13T19:28:43.278Z,3.83
2018-12-13T19:31:10.836Z,3.88
2018-12-13T19:33:38.761Z,3.90
2018-12-13T19:36:06.190Z,3.85
2018-12-13T19:38:33.739Z,3.76
2018-12-13T19:41:01.199Z,3.77
2018-12-13T19:43:28.923Z,3.80
2018-12-13T19:45:56.375Z,3.84
2018-12-13T19:48:23.788Z,3.79
2018-12-13T19:50:51.509Z,3.75
2018-12-13T19:53:19.706Z,3.70
2018-12-13T19:55:47.242Z,3.78
2018-12-13T19:58:14.681Z,3.77
2018-12-13T20:00:42.114Z,3.81
2018-12-13T20:03:10.739Z,3.88
2018-12-13T20:05:38.155Z,3.95
2018-12-13T20:08:07.401Z,3.84
2018-12-13T20:10:34.813Z,3.77
2018-12-13T20:13:02.319Z,3.75
2018-12-13T20:15:29.755Z,3.78
2018-12-13T20:17:57.182Z,3.82
2018-12-13T20:20:24.704Z,3.84
2018-12-13T20:22:53.673Z,3.84
2018-12-13T20:25:21.084Z,3.71
2018-12-13T20:27:48.599Z,3.60
2018-12-13T20:30:16.073Z,3.65
2018-12-13T20:32:43.488Z,3.65
2018-12-13T20:35:10.990Z,3.49
2018-12-13T20:37:38.483Z,3.45
2018-12-13T20:40:05.903Z,3.42
2018-12-13T20:42:33.305Z,3.46
2018-12-13T20:45:00.713Z,3.47
2018-12-13T20:47:28.139Z,3.50
2018-12-13T20:49:55.542Z,3.52
2018-12-13T20:52:22.986Z,3.56
2018-12-13T20:54:50.408Z,3.61
2018-12-13T20:57:18.639Z,3.66
2018-12-13T20:59:46.037Z,3.60
2018-12-13T21:02:13.547Z,3.62
2018-12-13T21:04:40.979Z,3.69
2018-12-13T21:07:14.160Z,3.77
2018-12-13T21:09:41.641Z,3.77
2018-12-13T21:12:09.048Z,3.81
2018-12-13T21:14:36.509Z,3.79
2018-12-13T21:17:03.915Z,3.87
2018-12-13T21:19:31.379Z,3.95
2018-12-13T21:21:58.818Z,3.96
2018-12-13T21:24:26.232Z,3.90
2018-12-13T21:26:53.693Z,3.89
2018-12-13T21:29:21.141Z,3.90
2018-12-13T21:31:49.432Z,3.92
2018-12-13T21:34:16.936Z,3.93
2018-12-13T21:36:45.143Z,3.99
2018-12-13T21:39:12.565Z,3.91
2018-12-13T21:41:40.121Z,3.77
2018-12-13T21:44:07.514Z,3.81
2018-12-13T21:46:35.065Z,3.79
2018-12-13T21:49:02.473Z,3.79
2018-12-13T21:51:29.879Z,3.81
2018-12-13T21:53:57.287Z,3.73
2018-12-13T21:56:24.786Z,3.67
2018-12-13T21:58:52.253Z,3.78
2018-12-13T22:01:21.400Z,3.90
2018-12-13T22:03:49.472Z,3.95
2018-12-13T22:06:16.875Z,3.99
2018-12-13T22:08:44.301Z,4.01
2018-12-13T22:11:12.701Z,4.03
2018-12-13T22:13:40.118Z,4.01
2018-12-13T22:16:07.523Z,3.97
2018-12-13T22:18:35.114Z,3.86
2018-12-13T22:21:02.592Z,3.83
2018-12-13T22:23:29.991Z,3.82
2018-12-13T22:25:57.601Z,3.88
2018-12-13T22:28:25.138Z,3.87
2018-12-13T22:30:52.539Z,3.79
2018-12-13T22:33:20.179Z,3.67
2018-12-13T22:35:47.579Z,3.71
2018-12-13T22:38:15.505Z,3.77
2018-12-13T22:40:42.963Z,3.73
2018-12-13T22:43:10.655Z,3.90
2018-12-13T22:45:38.054Z,3.79
2018-12-13T22:48:05.480Z,3.70
2018-12-13T22:50:32.919Z,3.58
2018-12-13T22:53:00.403Z,3.62
2018-12-13T22:55:27.797Z,3.50
2018-12-13T22:57:55.218Z,3.53
2018-12-13T23:00:22.667Z,3.50
2018-12-13T23:02:50.064Z,3.50
2018-12-13T23:05:17.497Z,3.46
2018-12-13T23:07:44.940Z,3.45
2018-12-13T23:10:12.345Z,3.46
2018-12-13T23:12:39.793Z,3.52
2018-12-13T23:15:07.249Z,3.63
2018-12-13T23:17:34.673Z,3.66
2018-12-13T23:20:02.109Z,3.46
2018-12-13T23:22:29.549Z,3.49
2018-12-13T23:24:56.950Z,3.38
2018-12-13T23:27:24.670Z,3.49
2018-12-13T23:29:52.102Z,3.62
2018-12-13T23:32:19.498Z,3.68
2018-12-13T23:34:47.708Z,3.73
2018-12-13T23:37:15.116Z,3.78
2018-12-13T23:39:42.622Z,3.82
2018-12-13T23:42:10.143Z,3.76
2018-12-13T23:44:37.573Z,3.70
2018-12-13T23:47:05.936Z,3.69
2018-12-13T23:49:33.333Z,3.78
2018-12-13T23:52:00.750Z,3.79
2018-12-13T23:54:28.158Z,3.79
2018-12-13T23:56:55.588Z,3.77
2018-12-13T23:59:23.024Z,3.76
